createdAt,value
2022-11-06T00:01:20.003Z,3.33
2022-11-06T00:04:23.161Z,2.67
2022-11-06T00:07:26.520Z,2.30
2022-11-06T00:10:31.771Z,2.40
2022-11-06T00:13:34.728Z,2.13
2022-11-06T00:16:39.080Z,2.60
2022-11-06T00:19:42.036Z,2.43
2022-11-06T00:22:46.442Z,2.37
2022-11-06T00:25:53.142Z,2.27
2022-11-06T00:28:56.862Z,2.70
2022-11-06T00:31:59.845Z,2.73
2022-11-06T00:35:02.805Z,2.43
2022-11-06T00:38:07.786Z,2.20
2022-11-06T00:41:13.540Z,2.30
2022-11-06T00:44:16.612Z,2.43
2022-11-06T00:47:19.639Z,2.50
2022-11-06T00:50:26.263Z,2.00
2022-11-06T00:53:30.607Z,2.17
2022-11-06T00:56:34.303Z,2.00
2022-11-06T00:59:37.413Z,2.20
2022-11-06T01:02:40.563Z,1.90
2022-11-06T01:05:43.620Z,2.07
2022-11-06T01:08:48.641Z,1.80
2022-11-06T01:12:12.281Z,2.00
2022-11-06T01:15:16.140Z,1.80
2022-11-06T01:18:19.123Z,1.70
2022-11-06T01:21:23.901Z,2.07
2022-11-06T01:24:29.867Z,1.77
2022-11-06T01:27:32.903Z,2.30
2022-11-06T01:30:37.468Z,2.00
2022-11-06T01:33:40.832Z,2.27
2022-11-06T01:36:43.933Z,2.30
2022-11-06T01:39:50.373Z,2.20
2022-11-06T01:42:53.375Z,1.70
2022-11-06T01:45:56.853Z,2.17
2022-11-06T01:49:04.820Z,2.20
2022-11-06T01:52:12.441Z,2.00
2022-11-06T01:55:20.886Z,2.10
2022-11-06T01:58:26.324Z,2.37
2022-11-06T02:01:29.375Z,2.03
2022-11-06T02:04:38.113Z,1.90
2022-11-06T02:07:43.680Z,1.83
2022-11-06T02:10:48.488Z,1.90
2022-11-06T02:14:02.638Z,1.90
2022-11-06T02:17:10.927Z,2.20
2022-11-06T02:20:23.899Z,2.07
2022-11-06T02:23:38.548Z,2.17
2022-11-06T02:26:57.523Z,2.20
2022-11-06T02:30:03.959Z,2.40
2022-11-06T02:33:11.650Z,1.90
2022-11-06T02:36:19.572Z,1.90
2022-11-06T02:39:25.388Z,2.70
2022-11-06T02:42:32.685Z,2.20
2022-11-06T02:45:40.490Z,2.00
2022-11-06T02:48:48.064Z,2.27
2022-11-06T02:51:56.007Z,2.20
2022-11-06T02:55:06.326Z,2.10
2022-11-06T02:58:15.294Z,2.30
2022-11-06T03:01:23.621Z,2.20
2022-11-06T03:04:30.469Z,2.30
2022-11-06T03:07:38.309Z,1.87
2022-11-06T03:10:46.753Z,2.87
2022-11-06T03:13:57.747Z,2.20
2022-11-06T03:17:04.189Z,1.97
2022-11-06T03:20:18.788Z,2.53
2022-11-06T03:23:27.968Z,1.87
2022-11-06T03:26:34.814Z,1.90
2022-11-06T03:29:43.626Z,1.90
2022-11-06T03:32:51.889Z,1.87
2022-11-06T03:35:59.068Z,2.50
2022-11-06T03:39:07.010Z,2.30
2022-11-06T03:42:14.563Z,2.23
2022-11-06T03:45:22.907Z,2.27
2022-11-06T03:48:31.001Z,2.40
2022-11-06T03:51:39.433Z,2.20
2022-11-06T03:54:47.620Z,2.20
2022-11-06T03:57:54.020Z,2.30
2022-11-06T04:01:00.532Z,1.93
2022-11-06T04:04:07.930Z,2.33
2022-11-06T04:07:14.352Z,2.13
2022-11-06T04:10:34.809Z,1.97
2022-11-06T04:13:57.444Z,1.97
2022-11-06T04:17:04.820Z,1.90
2022-11-06T04:20:11.600Z,1.90
2022-11-06T04:23:23.356Z,2.30
2022-11-06T04:26:37.248Z,1.97
2022-11-06T04:29:49.619Z,2.30
2022-11-06T04:33:05.821Z,2.23
2022-11-06T04:36:17.295Z,2.40
2022-11-06T04:39:27.049Z,2.00
2022-11-06T04:42:37.160Z,2.13
2022-11-06T04:45:43.025Z,2.33
2022-11-06T04:48:48.812Z,2.00
2022-11-06T04:51:52.793Z,1.70
2022-11-06T04:54:58.327Z,2.10
2022-11-06T04:58:01.284Z,2.27
2022-11-06T05:01:04.409Z,2.10
2022-11-06T05:04:08.865Z,2.10
2022-11-06T05:07:14.284Z,1.87
2022-11-06T05:10:17.369Z,1.90
2022-11-06T05:13:20.374Z,2.10
2022-11-06T05:16:23.351Z,1.97
2022-11-06T05:19:27.699Z,1.70
2022-11-06T05:22:48.086Z,1.77
2022-11-06T05:25:51.023Z,1.97
2022-11-06T05:28:54.013Z,1.80
2022-11-06T05:31:57.074Z,2.20
2022-11-06T05:35:01.365Z,2.30
2022-11-06T05:38:04.992Z,1.77
2022-11-06T05:41:07.929Z,2.00
2022-11-06T05:44:11.103Z,1.80
2022-11-06T05:47:14.066Z,1.47
2022-11-06T05:50:18.492Z,1.90
2022-11-06T05:53:21.429Z,1.83
2022-11-06T05:56:24.502Z,2.20
2022-11-06T05:59:27.454Z,2.10
2022-11-06T06:02:30.565Z,2.13
2022-11-06T06:05:34.959Z,1.63
2022-11-06T06:08:37.889Z,1.80
2022-11-06T06:11:41.396Z,1.83
2022-11-06T06:14:49.247Z,2.10
2022-11-06T06:17:53.298Z,1.87
2022-11-06T06:20:58.866Z,1.83
2022-11-06T06:24:01.885Z,1.90
2022-11-06T06:27:05.210Z,2.10
2022-11-06T06:30:09.559Z,1.80
2022-11-06T06:33:12.543Z,1.77
2022-11-06T06:36:17.296Z,2.20
2022-11-06T06:39:21.267Z,2.00
2022-11-06T06:42:30.162Z,2.30
2022-11-06T06:45:34.154Z,1.93
2022-11-06T06:48:37.294Z,2.43
2022-11-06T06:51:41.599Z,1.60
2022-11-06T06:54:44.645Z,1.87
2022-11-06T06:57:47.603Z,2.40
2022-11-06T07:00:50.748Z,1.93
2022-11-06T07:03:53.749Z,2.00
2022-11-06T07:06:58.034Z,1.97
2022-11-06T07:10:01.002Z,1.83
2022-11-06T07:13:05.092Z,1.80
2022-11-06T07:16:10.227Z,1.43
2022-11-06T07:19:13.281Z,2.00
2022-11-06T07:22:21.639Z,1.97
2022-11-06T07:25:28.304Z,1.90
2022-11-06T07:28:31.277Z,2.10
2022-11-06T07:31:34.210Z,1.90
2022-11-06T07:34:38.840Z,2.10
2022-11-06T07:37:43.974Z,1.40
2022-11-06T07:40:46.971Z,1.43
2022-11-06T07:43:50.668Z,1.83
2022-11-06T07:46:53.613Z,1.57
2022-11-06T07:49:56.582Z,1.60
2022-11-06T07:53:02.983Z,1.80
2022-11-06T07:56:06.747Z,1.80
2022-11-06T07:59:09.726Z,1.60
2022-11-06T08:02:13.320Z,1.60
2022-11-06T08:05:16.451Z,1.50
2022-11-06T08:08:20.768Z,1.10
2022-11-06T08:11:23.690Z,1.50
2022-11-06T08:14:26.650Z,1.63
2022-11-06T08:17:30.985Z,1.47
2022-11-06T08:20:33.933Z,1.30
2022-11-06T08:23:38.249Z,1.40
2022-11-06T08:26:41.183Z,1.30
2022-11-06T08:29:44.134Z,1.40
2022-11-06T08:32:47.084Z,1.43
2022-11-06T08:35:50.108Z,1.50
2022-11-06T08:38:54.409Z,1.30
2022-11-06T08:41:57.382Z,1.40
2022-11-06T08:45:00.346Z,1.60
2022-11-06T08:48:04.645Z,1.50
2022-11-06T08:51:08.031Z,1.50
2022-11-06T08:54:12.972Z,1.30
2022-11-06T08:57:16.010Z,1.40
2022-11-06T09:00:19.235Z,1.40
2022-11-06T09:03:22.453Z,1.10
2022-11-06T09:06:26.298Z,1.33
2022-11-06T09:09:32.059Z,1.37
2022-11-06T09:12:35.089Z,1.57
2022-11-06T09:15:38.674Z,1.50
2022-11-06T09:18:41.656Z,1.20
2022-11-06T09:21:45.612Z,1.20
2022-11-06T09:25:03.060Z,1.20
2022-11-06T09:28:06.908Z,1.20
2022-11-06T09:31:10.397Z,1.60
2022-11-06T09:34:13.353Z,1.20
2022-11-06T09:37:16.494Z,0.90
2022-11-06T09:40:25.891Z,1.40
2022-11-06T09:44:10.762Z,1.40
2022-11-06T09:47:18.309Z,1.13
2022-11-06T09:50:26.791Z,1.30
2022-11-06T09:53:35.193Z,1.20
2022-11-06T09:56:42.150Z,1.10
2022-11-06T09:59:46.248Z,1.07
2022-11-06T10:02:52.400Z,1.10
2022-11-06T10:05:55.594Z,1.00
2022-11-06T10:09:01.746Z,1.10
2022-11-06T10:12:17.947Z,1.23
2022-11-06T10:15:25.951Z,1.30
2022-11-06T10:18:39.283Z,1.20
2022-11-06T10:21:48.509Z,0.90
2022-11-06T10:24:59.269Z,1.30
2022-11-06T10:28:09.443Z,0.93
2022-11-06T10:31:22.284Z,0.80
2022-11-06T10:34:31.624Z,1.40
2022-11-06T10:37:42.134Z,1.10
2022-11-06T10:40:48.907Z,1.43
2022-11-06T10:43:57.810Z,1.30
2022-11-06T10:47:07.072Z,1.13
2022-11-06T10:50:14.876Z,1.20
2022-11-06T10:53:25.937Z,1.30
2022-11-06T10:56:47.138Z,1.30
2022-11-06T10:59:51.768Z,1.00
2022-11-06T11:02:58.031Z,1.20
2022-11-06T11:06:01.812Z,1.03
2022-11-06T11:09:30.351Z,1.20
2022-11-06T11:12:33.481Z,1.10
2022-11-06T11:15:44.636Z,1.27
2022-11-06T11:18:48.229Z,1.00
2022-11-06T11:21:56.260Z,1.27
2022-11-06T11:25:03.106Z,1.10
2022-11-06T11:28:06.421Z,1.27
2022-11-06T11:31:12.818Z,0.90
2022-11-06T11:34:22.146Z,0.93
2022-11-06T11:37:28.998Z,0.97
2022-11-06T11:40:36.879Z,0.90
2022-11-06T11:43:40.745Z,1.33
2022-11-06T11:46:48.160Z,0.90
2022-11-06T11:49:51.593Z,0.90
2022-11-06T11:52:59.336Z,1.00
2022-11-06T11:56:05.839Z,0.87
2022-11-06T11:59:17.821Z,0.93
2022-11-06T12:02:27.562Z,0.80
2022-11-06T12:05:35.078Z,1.10
2022-11-06T12:08:40.571Z,0.93
2022-11-06T12:11:45.377Z,1.07
2022-11-06T12:14:48.401Z,1.10
2022-11-06T12:17:55.574Z,1.00
2022-11-06T12:21:02.611Z,1.17
2022-11-06T12:24:13.649Z,1.00
2022-11-06T12:27:22.956Z,0.80
2022-11-06T12:30:26.356Z,0.90
2022-11-06T12:34:04.622Z,0.83
2022-11-06T12:37:11.697Z,1.07
2022-11-06T12:40:25.121Z,1.17
2022-11-06T12:43:38.377Z,1.20
2022-11-06T12:46:49.180Z,0.90
2022-11-06T12:50:22.097Z,0.87
2022-11-06T12:53:41.949Z,1.00
2022-11-06T12:56:54.131Z,1.03
2022-11-06T13:00:06.546Z,0.93
2022-11-06T13:03:26.161Z,1.10
2022-11-06T13:06:55.832Z,1.10
2022-11-06T13:10:09.957Z,1.40
2022-11-06T13:13:32.072Z,0.83
2022-11-06T13:16:42.622Z,0.90
2022-11-06T13:19:53.578Z,1.17
2022-11-06T13:23:05.252Z,1.17
2022-11-06T13:26:15.909Z,1.00
2022-11-06T13:29:22.400Z,1.30
2022-11-06T13:32:27.943Z,0.90
2022-11-06T13:35:33.160Z,1.17
2022-11-06T13:38:39.276Z,1.03
2022-11-06T13:41:42.267Z,1.10
2022-11-06T13:44:45.348Z,0.83
2022-11-06T13:48:04.647Z,1.00
2022-11-06T13:51:18.087Z,0.93
2022-11-06T13:54:39.433Z,0.90
2022-11-06T13:58:16.028Z,1.00
2022-11-06T14:01:30.924Z,1.30
2022-11-06T14:05:05.941Z,1.47
2022-11-06T14:08:15.596Z,1.20
2022-11-06T14:11:21.838Z,1.20
2022-11-06T14:14:27.161Z,1.40
2022-11-06T14:17:30.205Z,1.50
2022-11-06T14:20:37.345Z,1.10
2022-11-06T14:23:54.853Z,1.70
2022-11-06T14:26:58.818Z,1.47
2022-11-06T14:30:05.155Z,1.40
2022-11-06T14:33:12.259Z,1.40
2022-11-06T14:36:28.405Z,1.40
2022-11-06T14:40:06.054Z,1.50
2022-11-06T14:43:18.746Z,1.67
2022-11-06T14:46:24.597Z,1.60
2022-11-06T14:49:42.059Z,1.40
2022-11-06T14:52:50.214Z,1.20
2022-11-06T14:55:59.319Z,1.33
2022-11-06T14:59:10.073Z,1.60
2022-11-06T15:02:19.762Z,1.77
2022-11-06T15:05:22.904Z,1.97
2022-11-06T15:08:56.564Z,1.90
2022-11-06T15:12:01.709Z,1.87
2022-11-06T15:15:16.318Z,1.90
2022-11-06T15:18:22.855Z,2.13
2022-11-06T15:21:30.969Z,2.03
2022-11-06T15:24:39.429Z,1.80
2022-11-06T15:27:47.390Z,2.03
2022-11-06T15:30:54.883Z,1.87
2022-11-06T15:34:02.165Z,1.57
2022-11-06T15:37:10.823Z,2.00
2022-11-06T15:40:30.012Z,1.67
2022-11-06T15:43:35.626Z,1.80
2022-11-06T15:46:38.621Z,1.90
2022-11-06T15:49:41.549Z,1.53
2022-11-06T15:52:45.545Z,1.90
2022-11-06T15:55:56.633Z,1.97
2022-11-06T15:59:08.729Z,1.63
2022-11-06T16:02:17.698Z,1.70
2022-11-06T16:05:22.688Z,1.93
2022-11-06T16:08:26.934Z,1.73
2022-11-06T16:11:31.760Z,1.80
2022-11-06T16:14:39.814Z,2.00
2022-11-06T16:17:46.189Z,1.73
2022-11-06T16:20:52.073Z,1.67
2022-11-06T16:23:58.317Z,1.77
2022-11-06T16:27:07.034Z,1.87
2022-11-06T16:30:25.142Z,1.40
2022-11-06T16:33:29.832Z,1.50
2022-11-06T16:36:51.454Z,1.60
2022-11-06T16:39:55.962Z,1.30
2022-11-06T16:43:04.374Z,1.50
2022-11-06T16:46:09.056Z,1.60
2022-11-06T16:49:33.593Z,2.00
2022-11-06T16:52:39.004Z,1.63
2022-11-06T16:55:42.342Z,1.50
2022-11-06T16:58:50.992Z,1.83
2022-11-06T17:01:54.508Z,1.63
2022-11-06T17:05:15.268Z,1.53
2022-11-06T17:08:24.959Z,2.00
2022-11-06T17:11:27.953Z,1.70
2022-11-06T17:14:33.026Z,1.63
2022-11-06T17:17:40.158Z,1.70
2022-11-06T17:20:46.914Z,1.90
2022-11-06T17:23:51.265Z,1.67
2022-11-06T17:26:55.251Z,1.87
2022-11-06T17:29:59.577Z,2.07
2022-11-06T17:33:02.590Z,1.90
2022-11-06T17:36:06.404Z,2.37
2022-11-06T17:39:09.420Z,2.23
2022-11-06T17:42:12.397Z,2.03
2022-11-06T17:45:16.873Z,2.00
2022-11-06T17:48:19.967Z,2.10
2022-11-06T17:51:41.373Z,2.10
2022-11-06T17:54:44.365Z,1.73
2022-11-06T17:57:47.381Z,2.20
2022-11-06T18:00:51.821Z,2.50
2022-11-06T18:03:54.927Z,2.80
2022-11-06T18:06:58.325Z,3.07
2022-11-06T18:10:01.267Z,2.53
2022-11-06T18:13:04.252Z,1.70
2022-11-06T18:16:17.981Z,1.73
2022-11-06T18:19:22.670Z,1.63
2022-11-06T18:22:25.725Z,1.80
2022-11-06T18:25:28.754Z,1.93
2022-11-06T18:28:31.865Z,1.60
2022-11-06T18:31:36.650Z,1.60
2022-11-06T18:34:40.294Z,1.30
2022-11-06T18:37:43.289Z,1.40
2022-11-06T18:40:51.372Z,1.20
2022-11-06T18:43:56.918Z,1.60
2022-11-06T18:47:01.288Z,1.23
2022-11-06T18:50:04.907Z,2.03
2022-11-06T18:53:08.354Z,1.47
2022-11-06T18:56:12.340Z,1.47
2022-11-06T18:59:19.437Z,1.50
2022-11-06T19:02:24.418Z,1.70
2022-11-06T19:05:27.538Z,2.10
2022-11-06T19:08:30.573Z,1.60
2022-11-06T19:11:33.702Z,1.37
2022-11-06T19:14:36.642Z,1.70
2022-11-06T19:17:40.957Z,2.00
2022-11-06T19:20:44.291Z,1.40
2022-11-06T19:23:47.564Z,1.63
2022-11-06T19:26:51.129Z,1.50
2022-11-06T19:29:54.109Z,1.53
2022-11-06T19:32:58.430Z,1.50
2022-11-06T19:36:01.905Z,1.30
2022-11-06T19:39:05.487Z,1.33
2022-11-06T19:42:08.513Z,1.57
2022-11-06T19:45:11.851Z,1.10
2022-11-06T19:48:16.158Z,1.77
2022-11-06T19:51:19.191Z,1.47
2022-11-06T19:54:22.156Z,1.40
2022-11-06T19:57:27.029Z,1.10
2022-11-06T20:00:31.128Z,1.13
2022-11-06T20:03:35.549Z,1.37
2022-11-06T20:06:39.771Z,1.53
2022-11-06T20:09:42.732Z,1.50
2022-11-06T20:12:45.896Z,1.50
2022-11-06T20:15:48.867Z,1.30
2022-11-06T20:18:54.224Z,1.67
2022-11-06T20:21:57.149Z,1.60
2022-11-06T20:25:00.140Z,1.20
2022-11-06T20:28:03.253Z,1.27
2022-11-06T20:31:08.075Z,1.50
2022-11-06T20:34:12.434Z,1.53
2022-11-06T20:37:15.421Z,1.27
2022-11-06T20:40:18.536Z,1.60
2022-11-06T20:43:22.053Z,1.23
2022-11-06T20:46:25.821Z,1.30
2022-11-06T20:49:30.158Z,1.40
2022-11-06T20:52:33.153Z,1.53
2022-11-06T20:55:36.140Z,1.47
2022-11-06T20:58:39.433Z,1.20
2022-11-06T21:01:42.985Z,1.50
2022-11-06T21:04:47.443Z,1.50
2022-11-06T21:07:50.407Z,1.40
2022-11-06T21:10:58.909Z,1.40
2022-11-06T21:14:05.334Z,1.37
2022-11-06T21:17:08.776Z,1.27
2022-11-06T21:20:13.186Z,1.23
2022-11-06T21:23:16.346Z,1.80
2022-11-06T21:26:22.056Z,1.33
2022-11-06T21:29:25.680Z,1.67
2022-11-06T21:32:28.700Z,1.40
2022-11-06T21:35:33.031Z,1.80
2022-11-06T21:38:36.188Z,1.87
2022-11-06T21:41:39.730Z,1.63
2022-11-06T21:44:43.117Z,1.40
2022-11-06T21:47:47.089Z,1.50
2022-11-06T21:50:52.062Z,1.30
2022-11-06T21:54:13.917Z,1.70
2022-11-06T21:57:16.869Z,1.70
2022-11-06T22:00:20.052Z,1.80
2022-11-06T22:03:23.081Z,1.70
2022-11-06T22:06:29.309Z,1.70
2022-11-06T22:09:32.289Z,1.60
2022-11-06T22:12:35.697Z,2.00
2022-11-06T22:15:38.666Z,1.90
2022-11-06T22:18:42.205Z,1.83
2022-11-06T22:21:46.564Z,1.40
2022-11-06T22:24:49.545Z,1.60
2022-11-06T22:27:52.661Z,1.60
2022-11-06T22:30:55.646Z,1.43
2022-11-06T22:33:59.117Z,1.73
2022-11-06T22:37:03.426Z,1.70
2022-11-06T22:40:07.756Z,1.53
2022-11-06T22:43:10.891Z,1.87
2022-11-06T22:46:15.593Z,1.97
2022-11-06T22:49:18.697Z,1.93
2022-11-06T22:52:22.976Z,2.30
2022-11-06T22:55:25.964Z,1.80
2022-11-06T22:58:30.087Z,1.70
2022-11-06T23:01:38.656Z,1.57
2022-11-06T23:04:44.440Z,2.40
2022-11-06T23:07:48.740Z,1.60
2022-11-06T23:10:51.720Z,1.80
2022-11-06T23:13:55.296Z,1.83
2022-11-06T23:17:00.348Z,1.80
2022-11-06T23:20:03.341Z,1.63
2022-11-06T23:23:07.765Z,1.97
2022-11-06T23:26:15.137Z,1.90
2022-11-06T23:29:18.092Z,1.93
2022-11-06T23:32:21.039Z,2.23
2022-11-06T23:35:28.076Z,1.97
2022-11-06T23:38:36.405Z,2.03
2022-11-06T23:41:45.738Z,1.90
2022-11-06T23:45:07.274Z,2.10
2022-11-06T23:48:13.241Z,2.00
2022-11-06T23:51:16.342Z,1.73
2022-11-06T23:54:20.709Z,1.70
2022-11-06T23:57:24.057Z,2.17
